Skip Navigation Links
NOAA logo - Click to go to the NOAA homepage
NOAA's National Weather Service
Alaska Aviation Weather Unit
  NWS logo - Click to go to the NWS homepage
Left Navbar Graphic     17 AKDT = 01 GMT

   
NOAA is celebrating 200 years of science, service, and stewardship. Visit the NOAA 200th celebration Web site to learn more.
USA.gov is the U.S. Government's official Web portal to all Federal, state and local government Web resources and services.
Facebook
NWS on Facebook

Important Change Regarding the AAWU Web Presence

 

Over the last several months, the AAWU has been working to navigate its webpages to a nationally supported server. Security, as well as other needs, have necessitated the change.  In the process, we have made an effort to enhance the functionality of our website, as well as some of our products. As of June 27, 2017, aawu.arh.noaa.gov will be discontinued. The new AAWU web address is weather.gov/aawu. It is now live and will run in-parallel with the old site until it is discontinued. Please send any feedback or questions regarding the new webpages to nws.ar.aawu.webauthors@noaa.gov.  Thank you for your patience during this time of transition.
AAWU Home :: Display TAF Add Bookmark
TAF PABR 260109Z 2601/2624 27006KT P6SM SCT005 OVC014
     FM260500 12005KT 3SM BR BKN007 OVC015
     FM261500 10010KT P6SM SCT015 BKN100=

PABR 251953Z 30005KT 10SM OVC016 01/00 A2986= PABR 252053Z 28005KT 10SM OVC020 02/00 A2988= PABR 252153Z 26004KT 10SM OVC022 02/01 A2989= PABR 252253Z 26005KT 10SM OVC020 02/00 A2989= PABR 252353Z AUTO 26006KT 10SM OVC015 02/01 A2989= PABR 260028Z 28006KT 10SM OVC014 02/01 A2990= SPECI PABR 260028Z 28006KT 10SM OVC014 02/01 A2990 RMK AO2 T00220006= PABR 260053Z 27006KT 10SM SCT005 OVC014 02/01 A2990= PABR 260127Z 00000KT 10SM OVC015 02/01 A2990= SPECI PABR 260127Z 00000KT 10SM OVC015 02/01 A2990 RMK AO2 T00220006=
 Alaska TAF Map

NOAA's National Weather Service
Alaska Aviation Weather Unit
6930 Sand Lake Road
Anchorage, AK 99502-1845
Disclaimer
Credits
Glossary
Privacy Policy
About Us
Career Opportunities
Contact AAWU Internet Services Site last modified: April, 17th 2012